sensor_id;sensor_type;location;lat;lon;timestamp;P1;durP1;ratioP1;P2;durP2;ratioP2
55776;SDS011;54079;44.540;18.784;2023-12-20T00:01:49;5.35;;;3.90;;
55776;SDS011;54079;44.540;18.784;2023-12-20T00:04:15;4.85;;;3.20;;
55776;SDS011;54079;44.540;18.784;2023-12-20T00:06:41;5.00;;;3.17;;
55776;SDS011;54079;44.540;18.784;2023-12-20T00:09:07;4.90;;;2.97;;
55776;SDS011;54079;44.540;18.784;2023-12-20T00:11:33;5.35;;;3.72;;
55776;SDS011;54079;44.540;18.784;2023-12-20T00:13:59;5.43;;;3.55;;
55776;SDS011;54079;44.540;18.784;2023-12-20T00:16:25;5.10;;;3.88;;
55776;SDS011;54079;44.540;18.784;2023-12-20T00:18:51;5.38;;;3.28;;
55776;SDS011;54079;44.540;18.784;2023-12-20T00:21:17;6.43;;;3.58;;
55776;SDS011;54079;44.540;18.784;2023-12-20T00:23:43;5.25;;;3.33;;
55776;SDS011;54079;44.540;18.784;2023-12-20T00:26:09;3.35;;;2.42;;
55776;SDS011;54079;44.540;18.784;2023-12-20T00:28:35;3.78;;;2.33;;
55776;SDS011;54079;44.540;18.784;2023-12-20T00:31:01;2.97;;;1.83;;
55776;SDS011;54079;44.540;18.784;2023-12-20T00:33:27;4.05;;;2.40;;
55776;SDS011;54079;44.540;18.784;2023-12-20T00:35:53;3.50;;;2.47;;
55776;SDS011;54079;44.540;18.784;2023-12-20T00:38:19;4.65;;;2.67;;
55776;SDS011;54079;44.540;18.784;2023-12-20T00:40:45;4.25;;;2.55;;
55776;SDS011;54079;44.540;18.784;2023-12-20T00:43:11;3.72;;;2.42;;
55776;SDS011;54079;44.540;18.784;2023-12-20T00:45:37;4.03;;;2.05;;
55776;SDS011;54079;44.540;18.784;2023-12-20T00:48:04;3.75;;;2.20;;
55776;SDS011;54079;44.540;18.784;2023-12-20T00:50:30;4.15;;;3.13;;
55776;SDS011;54079;44.540;18.784;2023-12-20T00:52:56;4.18;;;2.40;;
55776;SDS011;54079;44.540;18.784;2023-12-20T00:55:22;4.80;;;2.50;;
55776;SDS011;54079;44.540;18.784;2023-12-20T00:57:48;4.45;;;2.95;;
55776;SDS011;54079;44.540;18.784;2023-12-20T01:00:15;2.97;;;2.28;;
55776;SDS011;54079;44.540;18.784;2023-12-20T01:02:41;3.58;;;2.38;;
55776;SDS011;54079;44.540;18.784;2023-12-20T01:05:07;3.33;;;2.22;;
55776;SDS011;54079;44.540;18.784;2023-12-20T01:07:34;5.60;;;3.83;;
55776;SDS011;54079;44.540;18.784;2023-12-20T01:10:00;4.45;;;3.05;;
55776;SDS011;54079;44.540;18.784;2023-12-20T01:12:26;4.43;;;2.72;;
55776;SDS011;54079;44.540;18.784;2023-12-20T01:14:52;4.82;;;3.03;;
55776;SDS011;54079;44.540;18.784;2023-12-20T01:17:18;5.90;;;3.05;;
55776;SDS011;54079;44.540;18.784;2023-12-20T01:19:44;5.57;;;3.35;;
55776;SDS011;54079;44.540;18.784;2023-12-20T01:22:10;6.18;;;2.97;;
55776;SDS011;54079;44.540;18.784;2023-12-20T01:24:36;3.58;;;3.03;;
55776;SDS011;54079;44.540;18.784;2023-12-20T01:27:02;5.32;;;3.72;;
55776;SDS011;54079;44.540;18.784;2023-12-20T01:29:28;5.72;;;3.20;;
55776;SDS011;54079;44.540;18.784;2023-12-20T01:31:54;6.95;;;4.13;;
55776;SDS011;54079;44.540;18.784;2023-12-20T01:34:20;4.47;;;2.92;;
55776;SDS011;54079;44.540;18.784;2023-12-20T01:36:46;5.07;;;3.55;;
55776;SDS011;54079;44.540;18.784;2023-12-20T01:39:12;6.32;;;3.90;;
55776;SDS011;54079;44.540;18.784;2023-12-20T01:41:38;9.32;;;6.05;;
55776;SDS011;54079;44.540;18.784;2023-12-20T01:44:03;7.15;;;4.75;;
55776;SDS011;54079;44.540;18.784;2023-12-20T01:46:29;9.50;;;5.53;;
55776;SDS011;54079;44.540;18.784;2023-12-20T01:48:56;7.57;;;4.72;;
55776;SDS011;54079;44.540;18.784;2023-12-20T01:51:22;6.78;;;3.78;;
55776;SDS011;54079;44.540;18.784;2023-12-20T01:53:48;6.32;;;3.95;;
55776;SDS011;54079;44.540;18.784;2023-12-20T01:56:15;5.38;;;3.20;;
55776;SDS011;54079;44.540;18.784;2023-12-20T01:58:45;5.28;;;3.42;;
55776;SDS011;54079;44.540;18.784;2023-12-20T02:01:12;5.25;;;3.42;;
55776;SDS011;54079;44.540;18.784;2023-12-20T02:03:40;5.43;;;3.35;;
55776;SDS011;54079;44.540;18.784;2023-12-20T02:06:07;3.80;;;3.03;;
55776;SDS011;54079;44.540;18.784;2023-12-20T02:08:34;3.65;;;2.42;;
55776;SDS011;54079;44.540;18.784;2023-12-20T02:11:00;4.88;;;3.13;;
55776;SDS011;54079;44.540;18.784;2023-12-20T02:13:27;4.30;;;2.72;;
55776;SDS011;54079;44.540;18.784;2023-12-20T02:15:54;3.70;;;2.80;;
55776;SDS011;54079;44.540;18.784;2023-12-20T02:18:20;2.63;;;1.70;;
55776;SDS011;54079;44.540;18.784;2023-12-20T02:20:46;3.45;;;2.38;;
55776;SDS011;54079;44.540;18.784;2023-12-20T02:23:12;4.22;;;2.47;;
55776;SDS011;54079;44.540;18.784;2023-12-20T02:25:38;3.67;;;2.28;;
55776;SDS011;54079;44.540;18.784;2023-12-20T02:28:05;4.68;;;2.58;;
55776;SDS011;54079;44.540;18.784;2023-12-20T02:30:32;3.92;;;2.42;;
55776;SDS011;54079;44.540;18.784;2023-12-20T02:32:59;4.32;;;3.00;;
55776;SDS011;54079;44.540;18.784;2023-12-20T02:35:26;2.78;;;1.83;;
55776;SDS011;54079;44.540;18.784;2023-12-20T02:37:52;3.58;;;2.03;;
55776;SDS011;54079;44.540;18.784;2023-12-20T02:40:18;2.75;;;1.90;;
55776;SDS011;54079;44.540;18.784;2023-12-20T02:42:44;4.00;;;2.42;;
55776;SDS011;54079;44.540;18.784;2023-12-20T02:45:10;3.97;;;2.42;;
55776;SDS011;54079;44.540;18.784;2023-12-20T02:47:36;5.20;;;3.08;;
55776;SDS011;54079;44.540;18.784;2023-12-20T02:50:02;3.55;;;2.10;;
55776;SDS011;54079;44.540;18.784;2023-12-20T02:52:28;4.40;;;2.60;;
55776;SDS011;54079;44.540;18.784;2023-12-20T02:54:54;4.45;;;2.85;;
55776;SDS011;54079;44.540;18.784;2023-12-20T02:57:20;4.10;;;2.42;;
55776;SDS011;54079;44.540;18.784;2023-12-20T02:59:46;3.20;;;2.17;;
55776;SDS011;54079;44.540;18.784;2023-12-20T03:02:12;2.38;;;1.73;;
55776;SDS011;54079;44.540;18.784;2023-12-20T03:04:38;3.30;;;1.98;;
55776;SDS011;54079;44.540;18.784;2023-12-20T03:07:04;2.15;;;1.38;;
55776;SDS011;54079;44.540;18.784;2023-12-20T03:09:30;2.83;;;1.88;;
55776;SDS011;54079;44.540;18.784;2023-12-20T03:11:56;3.05;;;1.48;;
55776;SDS011;54079;44.540;18.784;2023-12-20T03:14:22;3.05;;;2.30;;
55776;SDS011;54079;44.540;18.784;2023-12-20T03:16:51;4.40;;;2.17;;
55776;SDS011;54079;44.540;18.784;2023-12-20T03:19:20;3.13;;;1.83;;
55776;SDS011;54079;44.540;18.784;2023-12-20T03:21:46;2.50;;;1.83;;
55776;SDS011;54079;44.540;18.784;2023-12-20T03:24:11;3.78;;;2.03;;
55776;SDS011;54079;44.540;18.784;2023-12-20T03:26:37;3.55;;;2.30;;
55776;SDS011;54079;44.540;18.784;2023-12-20T03:29:03;3.25;;;1.90;;
55776;SDS011;54079;44.540;18.784;2023-12-20T03:31:29;3.80;;;2.42;;
55776;SDS011;54079;44.540;18.784;2023-12-20T03:33:55;2.35;;;1.65;;
55776;SDS011;54079;44.540;18.784;2023-12-20T03:36:21;4.70;;;2.13;;
55776;SDS011;54079;44.540;18.784;2023-12-20T03:38:47;6.13;;;3.55;;
55776;SDS011;54079;44.540;18.784;2023-12-20T03:41:13;4.95;;;3.45;;
55776;SDS011;54079;44.540;18.784;2023-12-20T03:43:39;4.32;;;3.03;;
55776;SDS011;54079;44.540;18.784;2023-12-20T03:46:07;4.25;;;2.20;;
55776;SDS011;54079;44.540;18.784;2023-12-20T03:48:34;4.10;;;2.35;;
55776;SDS011;54079;44.540;18.784;2023-12-20T03:51:00;3.40;;;2.00;;
55776;SDS011;54079;44.540;18.784;2023-12-20T03:53:26;3.08;;;1.90;;
55776;SDS011;54079;44.540;18.784;2023-12-20T03:55:52;4.57;;;3.28;;
55776;SDS011;54079;44.540;18.784;2023-12-20T03:58:18;4.72;;;2.17;;
55776;SDS011;54079;44.540;18.784;2023-12-20T04:00:44;4.15;;;2.50;;
55776;SDS011;54079;44.540;18.784;2023-12-20T04:03:10;4.82;;;2.78;;
55776;SDS011;54079;44.540;18.784;2023-12-20T04:05:39;3.35;;;2.22;;
55776;SDS011;54079;44.540;18.784;2023-12-20T04:08:05;2.40;;;1.95;;
55776;SDS011;54079;44.540;18.784;2023-12-20T04:10:32;3.65;;;2.42;;
55776;SDS011;54079;44.540;18.784;2023-12-20T04:12:58;3.92;;;2.42;;
55776;SDS011;54079;44.540;18.784;2023-12-20T04:15:25;4.28;;;2.70;;
55776;SDS011;54079;44.540;18.784;2023-12-20T04:17:51;3.78;;;2.10;;
55776;SDS011;54079;44.540;18.784;2023-12-20T04:20:17;3.35;;;1.98;;
55776;SDS011;54079;44.540;18.784;2023-12-20T04:22:43;2.45;;;1.40;;
55776;SDS011;54079;44.540;18.784;2023-12-20T04:25:09;2.42;;;1.30;;
55776;SDS011;54079;44.540;18.784;2023-12-20T04:27:35;4.28;;;1.88;;
55776;SDS011;54079;44.540;18.784;2023-12-20T04:30:01;2.35;;;1.73;;
55776;SDS011;54079;44.540;18.784;2023-12-20T04:32:27;2.95;;;1.90;;
55776;SDS011;54079;44.540;18.784;2023-12-20T04:34:53;3.10;;;2.03;;
55776;SDS011;54079;44.540;18.784;2023-12-20T04:37:19;3.63;;;1.80;;
55776;SDS011;54079;44.540;18.784;2023-12-20T04:39:45;3.78;;;2.30;;
55776;SDS011;54079;44.540;18.784;2023-12-20T04:42:11;4.07;;;2.53;;
55776;SDS011;54079;44.540;18.784;2023-12-20T04:44:37;2.90;;;1.73;;
55776;SDS011;54079;44.540;18.784;2023-12-20T04:47:03;3.75;;;2.40;;
55776;SDS011;54079;44.540;18.784;2023-12-20T04:49:29;2.80;;;1.40;;
55776;SDS011;54079;44.540;18.784;2023-12-20T04:51:55;1.70;;;1.27;;
55776;SDS011;54079;44.540;18.784;2023-12-20T04:54:21;2.75;;;1.17;;
55776;SDS011;54079;44.540;18.784;2023-12-20T04:56:47;1.92;;;1.38;;
55776;SDS011;54079;44.540;18.784;2023-12-20T04:59:13;3.63;;;1.65;;
55776;SDS011;54079;44.540;18.784;2023-12-20T05:01:40;2.45;;;1.27;;
55776;SDS011;54079;44.540;18.784;2023-12-20T05:04:06;1.48;;;1.10;;
55776;SDS011;54079;44.540;18.784;2023-12-20T05:06:32;3.38;;;1.88;;
55776;SDS011;54079;44.540;18.784;2023-12-20T05:08:58;1.98;;;1.13;;
55776;SDS011;54079;44.540;18.784;2023-12-20T05:11:24;2.25;;;1.42;;
55776;SDS011;54079;44.540;18.784;2023-12-20T05:13:50;2.03;;;1.00;;
55776;SDS011;54079;44.540;18.784;2023-12-20T05:16:16;2.75;;;1.20;;
55776;SDS011;54079;44.540;18.784;2023-12-20T05:18:46;4.07;;;1.25;;
55776;SDS011;54079;44.540;18.784;2023-12-20T05:21:13;3.30;;;1.50;;
55776;SDS011;54079;44.540;18.784;2023-12-20T05:23:40;2.78;;;1.50;;
55776;SDS011;54079;44.540;18.784;2023-12-20T05:26:05;2.85;;;0.98;;
55776;SDS011;54079;44.540;18.784;2023-12-20T05:28:31;2.72;;;1.33;;
55776;SDS011;54079;44.540;18.784;2023-12-20T05:30:57;2.20;;;1.08;;
55776;SDS011;54079;44.540;18.784;2023-12-20T05:33:23;1.88;;;1.20;;
55776;SDS011;54079;44.540;18.784;2023-12-20T05:35:50;1.70;;;1.10;;
55776;SDS011;54079;44.540;18.784;2023-12-20T05:38:15;1.45;;;1.05;;
55776;SDS011;54079;44.540;18.784;2023-12-20T05:40:42;2.42;;;1.25;;
55776;SDS011;54079;44.540;18.784;2023-12-20T05:43:08;2.08;;;1.42;;
55776;SDS011;54079;44.540;18.784;2023-12-20T05:45:34;2.88;;;1.58;;
55776;SDS011;54079;44.540;18.784;2023-12-20T05:48:00;2.42;;;1.67;;
55776;SDS011;54079;44.540;18.784;2023-12-20T05:50:26;2.78;;;1.60;;
55776;SDS011;54079;44.540;18.784;2023-12-20T05:52:51;3.67;;;2.38;;
55776;SDS011;54079;44.540;18.784;2023-12-20T05:55:18;2.17;;;1.23;;
55776;SDS011;54079;44.540;18.784;2023-12-20T05:57:44;3.53;;;2.30;;
55776;SDS011;54079;44.540;18.784;2023-12-20T06:00:12;3.17;;;2.22;;
55776;SDS011;54079;44.540;18.784;2023-12-20T06:02:38;3.40;;;2.30;;
55776;SDS011;54079;44.540;18.784;2023-12-20T06:05:05;3.13;;;1.50;;
55776;SDS011;54079;44.540;18.784;2023-12-20T06:07:31;2.80;;;1.10;;
55776;SDS011;54079;44.540;18.784;2023-12-20T06:09:57;2.03;;;1.25;;
55776;SDS011;54079;44.540;18.784;2023-12-20T06:12:23;1.98;;;1.23;;
55776;SDS011;54079;44.540;18.784;2023-12-20T06:14:49;3.28;;;2.03;;
55776;SDS011;54079;44.540;18.784;2023-12-20T06:17:15;3.60;;;2.05;;
55776;SDS011;54079;44.540;18.784;2023-12-20T06:19:41;5.68;;;2.60;;
55776;SDS011;54079;44.540;18.784;2023-12-20T06:22:10;5.88;;;3.88;;
55776;SDS011;54079;44.540;18.784;2023-12-20T06:24:36;7.80;;;3.17;;
55776;SDS011;54079;44.540;18.784;2023-12-20T06:27:02;3.28;;;2.10;;
55776;SDS011;54079;44.540;18.784;2023-12-20T06:29:28;5.65;;;2.67;;
55776;SDS011;54079;44.540;18.784;2023-12-20T06:31:54;6.13;;;3.38;;
55776;SDS011;54079;44.540;18.784;2023-12-20T06:34:20;8.00;;;4.22;;
55776;SDS011;54079;44.540;18.784;2023-12-20T06:36:46;4.70;;;3.10;;
55776;SDS011;54079;44.540;18.784;2023-12-20T06:39:12;3.40;;;2.20;;
55776;SDS011;54079;44.540;18.784;2023-12-20T06:41:39;4.18;;;1.98;;
55776;SDS011;54079;44.540;18.784;2023-12-20T06:44:05;3.33;;;1.60;;
55776;SDS011;54079;44.540;18.784;2023-12-20T06:46:31;3.85;;;2.13;;
55776;SDS011;54079;44.540;18.784;2023-12-20T06:48:57;2.83;;;1.35;;
55776;SDS011;54079;44.540;18.784;2023-12-20T06:51:23;2.85;;;1.75;;
55776;SDS011;54079;44.540;18.784;2023-12-20T06:53:51;3.65;;;1.92;;
55776;SDS011;54079;44.540;18.784;2023-12-20T06:56:17;4.90;;;3.35;;
55776;SDS011;54079;44.540;18.784;2023-12-20T06:58:43;3.75;;;2.08;;
55776;SDS011;54079;44.540;18.784;2023-12-20T07:01:15;3.67;;;1.75;;
55776;SDS011;54079;44.540;18.784;2023-12-20T07:03:42;3.70;;;1.92;;
55776;SDS011;54079;44.540;18.784;2023-12-20T07:06:09;3.08;;;1.90;;
55776;SDS011;54079;44.540;18.784;2023-12-20T07:08:35;3.03;;;2.00;;
55776;SDS011;54079;44.540;18.784;2023-12-20T07:11:01;2.97;;;1.80;;
55776;SDS011;54079;44.540;18.784;2023-12-20T07:13:27;2.40;;;1.65;;
55776;SDS011;54079;44.540;18.784;2023-12-20T07:15:53;2.63;;;1.58;;
55776;SDS011;54079;44.540;18.784;2023-12-20T07:18:19;2.95;;;1.90;;
55776;SDS011;54079;44.540;18.784;2023-12-20T07:20:45;5.55;;;2.97;;
55776;SDS011;54079;44.540;18.784;2023-12-20T07:23:11;3.13;;;1.83;;
55776;SDS011;54079;44.540;18.784;2023-12-20T07:25:37;7.72;;;4.97;;
55776;SDS011;54079;44.540;18.784;2023-12-20T07:28:03;8.18;;;5.22;;
55776;SDS011;54079;44.540;18.784;2023-12-20T07:30:29;9.10;;;5.05;;
55776;SDS011;54079;44.540;18.784;2023-12-20T07:32:55;7.35;;;4.15;;
55776;SDS011;54079;44.540;18.784;2023-12-20T07:35:23;7.38;;;4.65;;
55776;SDS011;54079;44.540;18.784;2023-12-20T07:37:49;5.75;;;3.83;;
55776;SDS011;54079;44.540;18.784;2023-12-20T07:40:15;3.17;;;2.38;;
55776;SDS011;54079;44.540;18.784;2023-12-20T07:42:42;3.92;;;2.10;;
55776;SDS011;54079;44.540;18.784;2023-12-20T07:45:08;2.95;;;1.83;;
55776;SDS011;54079;44.540;18.784;2023-12-20T07:47:35;1.90;;;1.30;;
55776;SDS011;54079;44.540;18.784;2023-12-20T07:50:02;3.30;;;1.92;;
55776;SDS011;54079;44.540;18.784;2023-12-20T07:52:31;3.95;;;2.40;;
55776;SDS011;54079;44.540;18.784;2023-12-20T07:54:57;3.20;;;1.95;;
55776;SDS011;54079;44.540;18.784;2023-12-20T07:57:23;3.78;;;2.60;;
55776;SDS011;54079;44.540;18.784;2023-12-20T07:59:50;3.05;;;2.75;;
55776;SDS011;54079;44.540;18.784;2023-12-20T08:02:16;5.28;;;4.25;;
55776;SDS011;54079;44.540;18.784;2023-12-20T08:04:42;6.60;;;5.53;;
55776;SDS011;54079;44.540;18.784;2023-12-20T08:07:08;7.25;;;6.50;;
55776;SDS011;54079;44.540;18.784;2023-12-20T08:09:34;9.05;;;8.32;;
55776;SDS011;54079;44.540;18.784;2023-12-20T08:12:02;12.48;;;11.27;;
55776;SDS011;54079;44.540;18.784;2023-12-20T08:14:28;9.30;;;8.45;;
55776;SDS011;54079;44.540;18.784;2023-12-20T08:16:54;9.70;;;9.00;;
55776;SDS011;54079;44.540;18.784;2023-12-20T08:19:20;13.55;;;12.65;;
55776;SDS011;54079;44.540;18.784;2023-12-20T08:21:46;17.95;;;16.95;;
55776;SDS011;54079;44.540;18.784;2023-12-20T08:24:12;20.48;;;19.38;;
55776;SDS011;54079;44.540;18.784;2023-12-20T08:26:38;23.08;;;21.77;;
55776;SDS011;54079;44.540;18.784;2023-12-20T08:29:04;1999.90;;;999.90;;
55776;SDS011;54079;44.540;18.784;2023-12-20T08:31:30;1999.90;;;999.90;;
55776;SDS011;54079;44.540;18.784;2023-12-20T08:33:57;1999.90;;;999.90;;
55776;SDS011;54079;44.540;18.784;2023-12-20T08:36:23;1999.90;;;999.90;;
55776;SDS011;54079;44.540;18.784;2023-12-20T08:38:49;1999.90;;;999.90;;
55776;SDS011;54079;44.540;18.784;2023-12-20T08:41:16;1999.90;;;999.90;;
55776;SDS011;54079;44.540;18.784;2023-12-20T08:43:42;1999.90;;;999.90;;
55776;SDS011;54079;44.540;18.784;2023-12-20T08:46:08;1999.90;;;999.90;;
55776;SDS011;54079;44.540;18.784;2023-12-20T08:48:35;19.23;;;18.23;;
55776;SDS011;54079;44.540;18.784;2023-12-20T08:51:01;11.02;;;8.57;;
55776;SDS011;54079;44.540;18.784;2023-12-20T08:53:27;12.13;;;9.68;;
55776;SDS011;54079;44.540;18.784;2023-12-20T08:55:53;7.10;;;5.97;;
55776;SDS011;54079;44.540;18.784;2023-12-20T08:58:19;10.07;;;8.00;;
55776;SDS011;54079;44.540;18.784;2023-12-20T09:00:45;11.55;;;9.52;;
55776;SDS011;54079;44.540;18.784;2023-12-20T09:03:11;10.88;;;9.68;;
55776;SDS011;54079;44.540;18.784;2023-12-20T09:05:37;11.52;;;9.27;;
55776;SDS011;54079;44.540;18.784;2023-12-20T09:08:03;11.27;;;9.88;;
55776;SDS011;54079;44.540;18.784;2023-12-20T09:10:30;16.98;;;14.30;;
55776;SDS011;54079;44.540;18.784;2023-12-20T09:12:57;12.65;;;11.15;;
55776;SDS011;54079;44.540;18.784;2023-12-20T09:15:23;16.30;;;13.27;;
55776;SDS011;54079;44.540;18.784;2023-12-20T09:17:50;15.70;;;13.55;;
55776;SDS011;54079;44.540;18.784;2023-12-20T09:20:16;16.38;;;12.57;;
55776;SDS011;54079;44.540;18.784;2023-12-20T09:22:42;21.13;;;17.23;;
55776;SDS011;54079;44.540;18.784;2023-12-20T09:25:12;20.58;;;18.15;;
55776;SDS011;54079;44.540;18.784;2023-12-20T09:27:39;17.15;;;14.55;;
55776;SDS011;54079;44.540;18.784;2023-12-20T09:30:06;10.30;;;8.90;;
55776;SDS011;54079;44.540;18.784;2023-12-20T09:32:33;16.73;;;14.68;;
55776;SDS011;54079;44.540;18.784;2023-12-20T09:34:59;21.75;;;18.15;;
55776;SDS011;54079;44.540;18.784;2023-12-20T09:37:28;26.95;;;22.13;;
55776;SDS011;54079;44.540;18.784;2023-12-20T09:39:55;28.25;;;22.85;;
55776;SDS011;54079;44.540;18.784;2023-12-20T09:42:24;15.52;;;13.35;;
55776;SDS011;54079;44.540;18.784;2023-12-20T09:44:55;15.70;;;13.43;;
55776;SDS011;54079;44.540;18.784;2023-12-20T09:47:24;12.25;;;10.32;;
55776;SDS011;54079;44.540;18.784;2023-12-20T09:49:50;19.20;;;16.23;;
55776;SDS011;54079;44.540;18.784;2023-12-20T09:52:17;17.42;;;13.25;;
55776;SDS011;54079;44.540;18.784;2023-12-20T09:54:44;19.23;;;14.35;;
55776;SDS011;54079;44.540;18.784;2023-12-20T09:57:13;22.83;;;17.75;;
55776;SDS011;54079;44.540;18.784;2023-12-20T09:59:40;14.23;;;11.77;;
55776;SDS011;54079;44.540;18.784;2023-12-20T10:02:06;22.52;;;16.98;;
55776;SDS011;54079;44.540;18.784;2023-12-20T10:04:38;28.83;;;23.75;;
55776;SDS011;54079;44.540;18.784;2023-12-20T10:07:11;31.25;;;24.73;;
55776;SDS011;54079;44.540;18.784;2023-12-20T10:09:38;30.08;;;23.05;;
55776;SDS011;54079;44.540;18.784;2023-12-20T10:12:04;16.80;;;12.63;;
55776;SDS011;54079;44.540;18.784;2023-12-20T10:14:32;34.25;;;28.02;;
55776;SDS011;54079;44.540;18.784;2023-12-20T10:17:04;29.55;;;23.75;;
55776;SDS011;54079;44.540;18.784;2023-12-20T10:19:32;29.35;;;22.13;;
55776;SDS011;54079;44.540;18.784;2023-12-20T10:22:01;31.08;;;25.85;;
55776;SDS011;54079;44.540;18.784;2023-12-20T10:24:30;34.85;;;27.95;;
55776;SDS011;54079;44.540;18.784;2023-12-20T10:27:02;26.77;;;21.52;;
55776;SDS011;54079;44.540;18.784;2023-12-20T10:29:32;24.30;;;20.38;;
55776;SDS011;54079;44.540;18.784;2023-12-20T10:34:53;33.78;;;26.25;;
55776;SDS011;54079;44.540;18.784;2023-12-20T10:37:20;29.30;;;22.67;;
55776;SDS011;54079;44.540;18.784;2023-12-20T10:39:51;28.85;;;23.10;;
55776;SDS011;54079;44.540;18.784;2023-12-20T10:42:30;25.80;;;21.48;;
55776;SDS011;54079;44.540;18.784;2023-12-20T10:44:58;23.30;;;18.65;;
55776;SDS011;54079;44.540;18.784;2023-12-20T10:47:25;23.98;;;18.80;;
55776;SDS011;54079;44.540;18.784;2023-12-20T10:49:53;36.55;;;29.42;;
55776;SDS011;54079;44.540;18.784;2023-12-20T10:52:20;30.25;;;24.00;;
55776;SDS011;54079;44.540;18.784;2023-12-20T10:54:49;24.38;;;19.52;;
55776;SDS011;54079;44.540;18.784;2023-12-20T10:57:16;25.35;;;20.20;;
55776;SDS011;54079;44.540;18.784;2023-12-20T10:59:44;24.45;;;18.83;;
55776;SDS011;54079;44.540;18.784;2023-12-20T11:02:14;20.65;;;16.73;;
55776;SDS011;54079;44.540;18.784;2023-12-20T11:09:58;18.02;;;14.45;;
55776;SDS011;54079;44.540;18.784;2023-12-20T11:12:34;21.98;;;17.55;;
55776;SDS011;54079;44.540;18.784;2023-12-20T11:15:19;19.80;;;16.80;;
55776;SDS011;54079;44.540;18.784;2023-12-20T11:17:46;22.45;;;17.13;;
55776;SDS011;54079;44.540;18.784;2023-12-20T11:20:21;19.48;;;15.50;;
55776;SDS011;54079;44.540;18.784;2023-12-20T11:23:04;23.70;;;19.35;;
55776;SDS011;54079;44.540;18.784;2023-12-20T11:28:13;22.35;;;18.13;;
55776;SDS011;54079;44.540;18.784;2023-12-20T11:33:25;21.17;;;15.40;;
55776;SDS011;54079;44.540;18.784;2023-12-20T11:35:58;18.15;;;13.60;;
55776;SDS011;54079;44.540;18.784;2023-12-20T11:38:25;16.83;;;13.40;;
55776;SDS011;54079;44.540;18.784;2023-12-20T11:40:53;18.27;;;13.02;;
55776;SDS011;54079;44.540;18.784;2023-12-20T11:43:36;14.93;;;12.18;;
55776;SDS011;54079;44.540;18.784;2023-12-20T11:46:06;17.92;;;13.38;;
55776;SDS011;54079;44.540;18.784;2023-12-20T11:48:38;14.90;;;12.02;;
55776;SDS011;54079;44.540;18.784;2023-12-20T11:51:09;17.27;;;13.00;;
55776;SDS011;54079;44.540;18.784;2023-12-20T11:53:36;18.63;;;13.52;;
55776;SDS011;54079;44.540;18.784;2023-12-20T11:56:03;16.05;;;12.77;;
55776;SDS011;54079;44.540;18.784;2023-12-20T11:58:30;14.13;;;10.82;;
55776;SDS011;54079;44.540;18.784;2023-12-20T12:00:57;16.55;;;11.30;;
55776;SDS011;54079;44.540;18.784;2023-12-20T12:03:23;13.88;;;10.82;;
55776;SDS011;54079;44.540;18.784;2023-12-20T12:05:49;18.55;;;14.50;;
55776;SDS011;54079;44.540;18.784;2023-12-20T12:08:16;17.23;;;13.25;;
55776;SDS011;54079;44.540;18.784;2023-12-20T12:10:43;19.45;;;13.88;;
55776;SDS011;54079;44.540;18.784;2023-12-20T12:13:10;14.43;;;11.70;;
55776;SDS011;54079;44.540;18.784;2023-12-20T12:15:36;18.23;;;12.90;;
55776;SDS011;54079;44.540;18.784;2023-12-20T12:18:03;12.75;;;10.63;;
55776;SDS011;54079;44.540;18.784;2023-12-20T12:20:30;14.00;;;10.85;;
55776;SDS011;54079;44.540;18.784;2023-12-20T12:23:14;13.50;;;10.98;;
55776;SDS011;54079;44.540;18.784;2023-12-20T12:25:52;12.43;;;9.60;;
55776;SDS011;54079;44.540;18.784;2023-12-20T12:28:20;14.27;;;10.75;;
55776;SDS011;54079;44.540;18.784;2023-12-20T12:30:58;15.30;;;12.90;;
55776;SDS011;54079;44.540;18.784;2023-12-20T12:33:25;17.60;;;12.80;;
55776;SDS011;54079;44.540;18.784;2023-12-20T12:35:52;15.50;;;12.10;;
55776;SDS011;54079;44.540;18.784;2023-12-20T12:38:21;12.45;;;9.98;;
55776;SDS011;54079;44.540;18.784;2023-12-20T12:40:49;19.48;;;13.40;;
55776;SDS011;54079;44.540;18.784;2023-12-20T12:43:18;14.50;;;12.65;;
55776;SDS011;54079;44.540;18.784;2023-12-20T12:45:44;16.55;;;14.48;;
55776;SDS011;54079;44.540;18.784;2023-12-20T12:48:10;22.88;;;18.48;;
55776;SDS011;54079;44.540;18.784;2023-12-20T12:50:36;23.65;;;19.00;;
55776;SDS011;54079;44.540;18.784;2023-12-20T12:53:02;20.73;;;16.58;;
55776;SDS011;54079;44.540;18.784;2023-12-20T12:55:28;25.80;;;19.85;;
55776;SDS011;54079;44.540;18.784;2023-12-20T12:57:54;22.30;;;18.67;;
55776;SDS011;54079;44.540;18.784;2023-12-20T13:00:20;20.65;;;17.27;;
55776;SDS011;54079;44.540;18.784;2023-12-20T13:02:47;20.77;;;15.75;;
55776;SDS011;54079;44.540;18.784;2023-12-20T13:05:13;19.85;;;16.23;;
55776;SDS011;54079;44.540;18.784;2023-12-20T13:07:39;21.17;;;17.02;;
55776;SDS011;54079;44.540;18.784;2023-12-20T13:10:05;20.65;;;15.65;;
55776;SDS011;54079;44.540;18.784;2023-12-20T13:12:31;18.88;;;13.73;;
55776;SDS011;54079;44.540;18.784;2023-12-20T13:14:57;20.98;;;17.10;;
55776;SDS011;54079;44.540;18.784;2023-12-20T13:17:23;19.77;;;16.08;;
55776;SDS011;54079;44.540;18.784;2023-12-20T13:19:49;21.08;;;15.32;;
55776;SDS011;54079;44.540;18.784;2023-12-20T13:22:15;21.58;;;15.95;;
55776;SDS011;54079;44.540;18.784;2023-12-20T13:24:41;19.80;;;14.85;;
55776;SDS011;54079;44.540;18.784;2023-12-20T13:27:09;18.00;;;13.55;;
55776;SDS011;54079;44.540;18.784;2023-12-20T13:29:35;16.58;;;12.98;;
55776;SDS011;54079;44.540;18.784;2023-12-20T13:32:01;20.85;;;17.08;;
55776;SDS011;54079;44.540;18.784;2023-12-20T13:34:29;17.42;;;14.20;;
55776;SDS011;54079;44.540;18.784;2023-12-20T13:36:54;18.45;;;15.15;;
55776;SDS011;54079;44.540;18.784;2023-12-20T13:39:21;25.02;;;19.67;;
55776;SDS011;54079;44.540;18.784;2023-12-20T13:41:47;20.60;;;14.95;;
55776;SDS011;54079;44.540;18.784;2023-12-20T13:44:13;22.23;;;17.35;;
55776;SDS011;54079;44.540;18.784;2023-12-20T13:46:40;20.08;;;16.63;;
55776;SDS011;54079;44.540;18.784;2023-12-20T13:49:06;19.92;;;13.07;;
55776;SDS011;54079;44.540;18.784;2023-12-20T13:51:32;13.50;;;10.57;;
55776;SDS011;54079;44.540;18.784;2023-12-20T13:53:58;12.65;;;8.63;;
55776;SDS011;54079;44.540;18.784;2023-12-20T13:56:25;15.10;;;9.50;;
55776;SDS011;54079;44.540;18.784;2023-12-20T13:58:51;16.05;;;12.75;;
55776;SDS011;54079;44.540;18.784;2023-12-20T14:01:17;12.77;;;10.48;;
55776;SDS011;54079;44.540;18.784;2023-12-20T14:03:43;11.43;;;8.32;;
55776;SDS011;54079;44.540;18.784;2023-12-20T14:06:09;13.43;;;9.48;;
55776;SDS011;54079;44.540;18.784;2023-12-20T14:08:35;15.10;;;10.20;;
55776;SDS011;54079;44.540;18.784;2023-12-20T14:11:01;11.88;;;9.07;;
55776;SDS011;54079;44.540;18.784;2023-12-20T14:13:28;10.05;;;8.20;;
55776;SDS011;54079;44.540;18.784;2023-12-20T14:15:53;12.93;;;8.88;;
55776;SDS011;54079;44.540;18.784;2023-12-20T14:18:20;12.77;;;9.32;;
55776;SDS011;54079;44.540;18.784;2023-12-20T14:20:47;12.60;;;10.02;;
55776;SDS011;54079;44.540;18.784;2023-12-20T14:23:13;10.43;;;8.07;;
55776;SDS011;54079;44.540;18.784;2023-12-20T14:25:42;11.27;;;8.30;;
55776;SDS011;54079;44.540;18.784;2023-12-20T14:28:08;16.55;;;12.23;;
55776;SDS011;54079;44.540;18.784;2023-12-20T14:30:35;11.80;;;8.38;;
55776;SDS011;54079;44.540;18.784;2023-12-20T14:33:03;10.35;;;8.18;;
55776;SDS011;54079;44.540;18.784;2023-12-20T14:35:30;12.35;;;9.45;;